Time;durP1;ratioP1;P1;durP2;ratioP2;P2;SDS_P1;SDS_P2;PMS_P1;PMS_P2;Temp;Humidity;BMP_temperature;BMP_pressure;BME280_temperature;BME280_humidity;BME280_pressure;Samples;Min_cycle;Max_cycle;Signal;HPM_P1;HPM_P2
2022/06/23 00:01:16;;;;;;;7.10;6.70;;;;;;;13.51;97.61;101509.59;5015645;28;20429;-45
2022/06/23 00:03:48;;;;;;;7.40;7.00;;;;;;;13.51;98.02;101521.16;5016036;28;20425;-45
2022/06/23 00:06:33;;;;;;;7.97;7.27;;;;;;;13.50;97.86;101514.13;5014986;28;20464;-46
2022/06/23 00:09:02;;;;;;;8.00;7.50;;;;;;;13.45;97.85;101513.91;5015763;28;20472;-47
2022/06/23 00:11:30;;;;;;;8.73;7.90;;;;;;;13.42;97.95;101508.09;5015104;28;20441;-45
2022/06/23 00:14:12;;;;;;;8.47;7.90;;;;;;;13.38;98.17;101509.53;5015892;28;20433;-46
2022/06/23 00:16:40;;;;;;;8.50;7.90;;;;;;;13.37;97.94;101503.34;5014805;28;20500;-44
2022/06/23 00:19:13;;;;;;;10.50;9.60;;;;;;;13.36;97.67;101501.69;5015415;28;20429;-46
2022/06/23 00:21:46;;;;;;;9.90;9.20;;;;;;;13.35;98.11;101510.72;5015155;28;20455;-45
2022/06/23 00:24:20;;;;;;;8.60;7.90;;;;;;;13.30;97.92;101508.66;5015306;28;20429;-46
2022/06/23 00:26:49;;;;;;;10.80;9.80;;;;;;;13.29;98.25;101506.16;5014742;28;20552;-48
2022/06/23 00:29:19;;;;;;;10.00;9.17;;;;;;;13.26;97.99;101498.53;5015507;28;20846;-44
2022/06/23 00:31:55;;;;;;;10.67;9.77;;;;;;;13.23;98.27;101497.06;5009376;28;20460;-47
2022/06/23 00:34:26;;;;;;;10.97;10.17;;;;;;;13.20;98.49;101505.47;5006968;28;20927;-44
2022/06/23 00:37:01;;;;;;;10.43;9.63;;;;;;;13.21;98.57;101507.16;5014802;28;20827;-46
2022/06/23 00:39:34;;;;;;;9.30;8.60;;;;;;;13.20;98.46;101513.50;5015123;28;20432;-45
2022/06/23 00:42:04;;;;;;;9.73;8.93;;;;;;;13.18;97.99;101512.06;5014972;28;20478;-46
2022/06/23 00:44:39;;;;;;;8.93;8.33;;;;;;;13.12;97.60;101512.84;5014996;28;20945;-46
2022/06/23 00:47:14;;;;;;;8.50;7.90;;;;;;;13.05;97.34;101511.94;5014381;28;20464;-50
2022/06/23 00:49:48;;;;;;;7.70;7.00;;;;;;;12.95;96.85;101509.59;5015013;28;20560;-45
2022/06/23 00:52:24;;;;;;;8.93;8.27;;;;;;;12.88;96.75;101513.22;5014539;28;20967;-49
2022/06/23 00:54:56;;;;;;;9.40;8.60;;;;;;;12.79;96.53;101509.84;5014749;28;20429;-47
2022/06/23 00:57:29;;;;;;;9.10;8.40;;;;;;;12.71;96.53;101516.19;5013892;28;20469;-45
2022/06/23 01:00:06;;;;;;;7.70;7.10;;;;;;;12.65;96.68;101508.91;5014471;28;20425;-45
2022/06/23 01:02:39;;;;;;;10.47;9.47;;;;;;;12.56;96.60;101510.06;5014753;28;20447;-48
2022/06/23 01:05:13;;;;;;;9.80;8.90;;;;;;;12.49;96.40;101519.84;5013565;28;20427;-46
2022/06/23 01:07:57;;;;;;;8.90;8.30;;;;;;;12.42;96.63;101516.31;5013649;28;20482;-46
2022/06/23 01:10:32;;;;;;;8.60;7.90;;;;;;;12.40;96.96;101525.50;5013620;28;20483;-46
2022/06/23 01:13:08;;;;;;;8.37;7.67;;;;;;;12.34;96.94;101524.44;5013462;28;20953;-48
2022/06/23 01:15:41;;;;;;;9.63;8.93;;;;;;;12.27;96.58;101518.19;5013359;28;20930;-46
2022/06/23 01:18:16;;;;;;;9.17;8.50;;;;;;;12.23;97.04;101526.75;5012830;28;20476;-46
2022/06/23 01:20:53;;;;;;;10.10;9.10;;;;;;;12.16;96.57;101526.69;5013502;28;20430;-48
2022/06/23 01:23:49;;;;;;;10.03;9.20;;;;;;;12.10;96.63;101532.78;5013437;28;20447;-47
2022/06/23 01:26:35;;;;;;;9.07;8.27;;;;;;;12.01;96.51;101531.22;5012780;28;20540;-46
2022/06/23 01:29:11;;;;;;;9.07;8.37;;;;;;;11.96;97.13;101537.16;5013335;28;21018;-48
2022/06/23 01:31:43;;;;;;;8.90;8.20;;;;;;;11.90;97.03;101532.53;5007847;28;20489;-45
2022/06/23 01:34:22;;;;;;;8.80;8.10;;;;;;;11.85;97.34;101537.63;4994417;28;20458;-46
2022/06/23 01:36:57;;;;;;;8.57;7.97;;;;;;;11.78;96.92;101531.34;4992756;28;20469;-48
2022/06/23 01:39:30;;;;;;;8.60;7.80;;;;;;;11.75;97.32;101526.38;4993810;28;20798;-46
2022/06/23 01:42:01;;;;;;;10.27;9.40;;;;;;;11.72;97.55;101523.25;4993161;28;20452;-47
2022/06/23 01:44:43;;;;;;;9.40;8.70;;;;;;;11.68;97.26;101530.75;4993361;28;20963;-45
2022/06/23 01:47:18;;;;;;;9.97;9.20;;;;;;;11.64;97.57;101530.31;4992563;28;20473;-47
2022/06/23 01:49:49;;;;;;;10.40;9.50;;;;;;;11.58;97.48;101533.72;4993282;28;20473;-46
2022/06/23 01:52:20;;;;;;;10.80;9.90;;;;;;;11.53;97.51;101528.09;4993181;28;20434;-45
2022/06/23 01:54:52;;;;;;;10.67;9.77;;;;;;;11.50;97.20;101527.63;4993114;28;20452;-48
2022/06/23 01:57:28;;;;;;;11.53;10.37;;;;;;;11.47;97.44;101536.84;4992506;28;20462;-46
2022/06/23 02:00:03;;;;;;;11.23;10.33;;;;;;;11.43;97.67;101540.06;4993072;28;20433;-48
2022/06/23 02:02:46;;;;;;;10.73;9.83;;;;;;;11.38;97.56;101543.28;4993494;28;20443;-44
2022/06/23 02:05:26;;;;;;;10.93;10.03;;;;;;;11.34;97.61;101539.31;4993494;28;21088;-45
2022/06/23 02:07:58;;;;;;;10.70;9.73;;;;;;;11.31;97.83;101542.34;4992867;28;20466;-46
2022/06/23 02:10:32;;;;;;;10.40;9.50;;;;;;;11.27;97.92;101543.72;4992777;28;20484;-45
2022/06/23 02:13:12;;;;;;;10.83;9.87;;;;;;;11.23;97.76;101557.63;4993228;28;21031;-48
2022/06/23 02:15:52;;;;;;;10.30;9.30;;;;;;;11.18;97.79;101555.47;4992610;28;20924;-46
2022/06/23 02:18:24;;;;;;;13.07;9.70;;;;;;;11.15;98.14;101553.19;4992062;28;20466;-48
2022/06/23 02:21:05;;;;;;;10.97;10.07;;;;;;;11.12;98.22;101558.88;4992516;28;20436;-46
2022/06/23 02:23:42;;;;;;;10.90;9.93;;;;;;;11.07;98.27;101564.78;4992939;28;20417;-47
2022/06/23 02:26:18;;;;;;;11.47;10.47;;;;;;;11.06;98.14;101556.91;4992022;28;20445;-45
2022/06/23 02:28:54;;;;;;;10.83;9.83;;;;;;;11.05;98.36;101560.63;4992535;28;20931;-46
2022/06/23 02:31:32;;;;;;;10.30;9.30;;;;;;;11.05;98.54;101552.63;4992548;28;20442;-49
2022/06/23 02:34:07;;;;;;;9.80;9.00;;;;;;;11.02;98.28;101564.44;5003271;28;20426;-48
2022/06/23 02:36:54;;;;;;;9.50;8.80;;;;;;;10.99;98.35;101564.00;5011446;28;20460;-47
2022/06/23 02:39:26;;;;;;;9.27;8.57;;;;;;;10.97;98.36;101566.00;5011963;28;20953;-46
2022/06/23 02:42:00;;;;;;;10.60;9.70;;;;;;;10.93;98.36;101562.84;5011948;28;20440;-48
2022/06/23 02:44:43;;;;;;;10.60;9.60;;;;;;;10.93;98.44;101564.72;5012089;28;20436;-47
2022/06/23 02:47:26;;;;;;;10.00;9.10;;;;;;;10.89;98.32;101561.56;5011455;28;21002;-47
2022/06/23 02:50:06;;;;;;;10.70;9.80;;;;;;;10.87;98.61;101560.91;5011796;28;20472;-46
2022/06/23 02:53:05;;;;;;;9.37;8.57;;;;;;;10.87;98.63;101570.78;5011659;28;20440;-47
2022/06/23 02:55:47;;;;;;;9.37;8.60;;;;;;;10.86;98.43;101579.78;5011894;28;20437;-46
2022/06/23 02:58:22;;;;;;;8.90;8.20;;;;;;;10.85;98.73;101580.78;5011255;28;20465;-49
2022/06/23 03:00:56;;;;;;;10.40;9.43;;;;;;;10.85;98.45;101564.75;5011732;28;20424;-50
2022/06/23 03:03:31;;;;;;;11.70;9.30;;;;;;;10.85;98.76;101573.59;5011956;28;20481;-45
2022/06/23 03:06:05;;;;;;;9.57;8.77;;;;;;;10.87;98.59;101570.78;5011336;28;20499;-46
2022/06/23 03:08:42;;;;;;;9.23;8.53;;;;;;;10.90;98.69;101567.75;5011641;28;20435;-45
2022/06/23 03:11:19;;;;;;;9.60;7.77;;;;;;;10.93;98.51;101560.19;5011763;28;20473;-45
2022/06/23 03:13:52;;;;;;;16.57;7.70;;;;;;;10.99;98.94;101556.00;5011918;28;20429;-46
2022/06/23 03:16:25;;;;;;;8.60;7.00;;;;;;;11.05;98.91;101566.75;5011239;28;20465;-45
2022/06/23 03:19:00;;;;;;;8.00;7.13;;;;;;;11.16;98.97;101573.53;5011799;28;20433;-45
2022/06/23 03:21:31;;;;;;;7.27;6.67;;;;;;;11.27;98.99;101569.59;5011386;28;20431;-49
2022/06/23 03:24:05;;;;;;;8.40;7.50;;;;;;;11.36;98.96;101568.50;5011692;28;20437;-47
2022/06/23 03:26:39;;;;;;;7.90;7.30;;;;;;;11.62;98.97;101559.03;5011097;28;20461;-47
2022/06/23 03:29:16;;;;;;;8.07;7.57;;;;;;;12.52;98.49;101556.94;4976353;28;20480;-48
2022/06/23 03:31:56;;;;;;;7.53;7.03;;;;;;;13.52;98.03;101552.31;4982489;28;20850;-47
2022/06/23 03:34:31;;;;;;;6.47;6.07;;;;;;;14.34;98.87;101557.66;5007109;28;20432;-46
2022/06/23 03:37:02;;;;;;;6.37;6.00;;;;;;;14.33;96.16;101551.50;5014917;28;20474;-46
2022/06/23 03:42:24;;;;;;;6.53;6.13;;;;;;;13.95;90.21;101562.88;5015218;28;20432;-46
2022/06/23 03:44:56;;;;;;;6.33;5.90;;;;;;;13.82;89.67;101566.28;5015545;28;20472;-45
2022/06/23 03:47:41;;;;;;;6.67;6.27;;;;;;;13.78;90.10;101568.53;5014938;28;20472;-45
2022/06/23 03:50:20;;;;;;;6.70;6.20;;;;;;;13.74;90.17;101566.44;5015851;28;20839;-48
2022/06/23 03:52:53;;;;;;;7.50;7.00;;;;;;;13.76;90.34;101561.72;5011450;28;20441;-47
2022/06/23 03:55:25;;;;;;;6.87;6.37;;;;;;;13.82;90.94;101567.13;5010627;28;20437;-47
2022/06/23 03:57:57;;;;;;;6.47;5.97;;;;;;;14.02;91.72;101569.91;5007612;28;20492;-48
2022/06/23 04:00:34;;;;;;;7.10;6.60;;;;;;;14.11;91.50;101568.72;5011808;28;20930;-45
2022/06/23 04:03:12;;;;;;;9.60;8.80;;;;;;;14.17;90.69;101564.41;4994660;28;20449;-46
2022/06/23 04:06:31;;;;;;;7.20;6.80;;;;;;;14.23;90.10;101566.28;5010347;28;20436;-46
2022/06/23 04:09:09;;;;;;;7.00;6.40;;;;;;;14.44;90.86;101566.19;4989482;28;20445;-46
2022/06/23 04:11:48;;;;;;;7.07;6.57;;;;;;;14.81;91.85;101570.22;4999640;28;20483;-49
2022/06/23 04:14:22;;;;;;;7.30;6.70;;;;;;;15.10;91.29;101568.97;5001711;28;20455;-48
2022/06/23 04:16:55;;;;;;;7.00;6.40;;;;;;;15.24;90.04;101574.16;5003730;28;20468;-46
2022/06/23 04:19:27;;;;;;;6.67;6.27;;;;;;;15.24;87.88;101563.41;4997351;28;20465;-44
2022/06/23 04:22:05;;;;;;;6.73;6.23;;;;;;;15.20;87.16;101572.91;4998600;28;20438;-44
2022/06/23 04:24:36;;;;;;;6.90;6.50;;;;;;;15.18;87.37;101568.78;4997064;28;20916;-46
2022/06/23 04:27:10;;;;;;;7.70;7.20;;;;;;;15.15;87.80;101563.81;5003957;28;20488;-45
2022/06/23 04:29:39;;;;;;;7.10;6.30;;;;;;;15.18;88.52;101574.16;4996815;28;20854;-48
2022/06/23 04:32:11;;;;;;;8.07;6.50;;;;;;;15.20;89.31;101580.97;4998336;28;20468;-46
2022/06/23 04:34:48;;;;;;;6.90;6.30;;;;;;;15.25;89.47;101583.03;5004881;28;20433;-48
2022/06/23 04:37:24;;;;;;;6.37;6.07;;;;;;;15.29;90.10;101576.22;5003546;28;20486;-47
2022/06/23 04:40:01;;;;;;;6.30;5.90;;;;;;;15.33;90.39;101585.50;5005371;28;20430;-45
2022/06/23 04:42:28;;;;;;;7.73;7.23;;;;;;;15.32;89.98;101581.19;5010056;28;20795;-49
2022/06/23 04:45:27;;;;;;;7.40;6.90;;;;;;;15.32;90.35;101581.19;5003073;28;20466;-45
2022/06/23 04:47:58;;;;;;;7.40;6.17;;;;;;;15.29;90.27;101584.28;4997861;28;20462;-45
2022/06/23 04:50:40;;;;;;;6.70;6.30;;;;;;;15.15;89.61;101591.50;5004647;28;20919;-44
2022/06/23 04:53:30;;;;;;;6.37;6.00;;;;;;;15.17;91.17;101592.13;4997044;28;20446;-44
2022/06/23 04:56:06;;;;;;;6.70;6.30;;;;;;;15.18;91.40;101596.47;4997582;28;20453;-44
2022/06/23 04:58:43;;;;;;;6.73;6.33;;;;;;;15.17;91.26;101599.38;5000794;28;20480;-46
2022/06/23 05:01:15;;;;;;;6.30;5.90;;;;;;;15.12;90.75;101599.16;5009722;28;20772;-47
2022/06/23 05:03:48;;;;;;;6.77;6.37;;;;;;;15.06;90.59;101608.03;4999221;28;20536;-46
2022/06/23 05:06:25;;;;;;;7.20;6.70;;;;;;;15.08;91.42;101605.97;5009335;28;20453;-45
2022/06/23 05:08:54;;;;;;;7.20;6.70;;;;;;;15.02;91.32;101610.31;4983649;28;20438;-46
2022/06/23 05:11:29;;;;;;;7.40;6.90;;;;;;;15.06;92.14;101616.09;4992890;28;20474;-45
2022/06/23 05:14:02;;;;;;;6.80;6.20;;;;;;;15.10;92.43;101620.84;4994182;28;20424;-46
2022/06/23 05:16:34;;;;;;;7.67;7.00;;;;;;;15.10;92.14;101614.66;5002435;28;20835;-46
2022/06/23 05:19:09;;;;;;;7.20;6.70;;;;;;;15.07;92.00;101621.28;5001639;28;20433;-45
2022/06/23 05:21:40;;;;;;;6.53;6.23;;;;;;;15.10;92.42;101622.72;4989861;28;20441;-46
2022/06/23 05:24:15;;;;;;;8.00;7.50;;;;;;;15.13;92.70;101623.13;5001646;28;21128;-49
2022/06/23 05:26:49;;;;;;;6.50;6.10;;;;;;;15.18;93.06;101622.50;4997862;28;20465;-45
2022/06/23 05:29:20;;;;;;;6.53;6.13;;;;;;;15.24;93.21;101625.22;4978905;28;20438;-45
2022/06/23 05:31:51;;;;;;;8.00;7.40;;;;;;;15.30;93.22;101626.25;4996353;28;20469;-46
2022/06/23 05:34:23;;;;;;;7.27;6.77;;;;;;;15.36;93.39;101618.19;5006845;28;20440;-45
2022/06/23 05:37:00;;;;;;;8.03;7.23;;;;;;;15.41;93.10;101623.75;5009888;28;20471;-44
2022/06/23 05:39:37;;;;;;;7.60;7.10;;;;;;;15.43;92.96;101627.09;5010367;28;20417;-45
2022/06/23 05:42:12;;;;;;;7.00;6.50;;;;;;;15.46;93.09;101626.69;5003952;28;20440;-46
2022/06/23 05:44:48;;;;;;;7.80;7.30;;;;;;;15.52;93.31;101616.16;5007794;28;20459;-47
2022/06/23 05:47:18;;;;;;;7.97;7.37;;;;;;;15.67;93.37;101614.06;5001198;28;20477;-45
2022/06/23 05:49:51;;;;;;;7.37;6.80;;;;;;;15.92;93.90;101617.72;5003159;28;20434;-45
2022/06/23 05:52:22;;;;;;;7.40;6.97;;;;;;;16.04;90.92;101618.75;5008392;28;20488;-46
2022/06/23 05:54:56;;;;;;;7.30;6.77;;;;;;;16.26;91.52;101628.22;4992333;28;20430;-45
2022/06/23 05:57:29;;;;;;;6.47;6.07;;;;;;;16.37;89.61;101627.53;4999543;28;20479;-44
2022/06/23 06:00:04;;;;;;;7.17;6.67;;;;;;;16.37;88.37;101614.09;5001876;28;20437;-45
2022/06/23 06:02:38;;;;;;;7.30;6.80;;;;;;;16.35;87.82;101624.25;5009262;28;20432;-44
2022/06/23 06:05:10;;;;;;;8.47;7.77;;;;;;;16.44;88.43;101622.13;5010467;28;20428;-47
2022/06/23 06:07:41;;;;;;;7.40;6.70;;;;;;;16.61;89.38;101623.31;4978181;28;20465;-46
2022/06/23 06:10:19;;;;;;;8.70;7.90;;;;;;;16.81;89.91;101624.06;4993484;28;20946;-48
2022/06/23 06:12:48;;;;;;;8.57;7.97;;;;;;;17.00;89.29;101609.63;4980636;28;20479;-45
2022/06/23 06:15:20;;;;;;;7.97;7.37;;;;;;;17.25;88.70;101619.63;5010368;28;20444;-46
2022/06/23 06:17:51;;;;;;;9.63;8.73;;;;;;;17.37;86.79;101617.88;5005796;28;20465;-50
2022/06/23 06:20:24;;;;;;;9.43;8.73;;;;;;;17.47;84.64;101627.09;4994332;28;20425;-47
2022/06/23 06:22:58;;;;;;;9.13;8.30;;;;;;;17.60;83.80;101615.41;4990518;28;20445;-50
2022/06/23 06:25:30;;;;;;;10.53;9.63;;;;;;;17.70;83.04;101613.03;5003793;28;20436;-46
2022/06/23 06:28:10;;;;;;;9.60;8.67;;;;;;;17.94;84.83;101622.97;5009259;28;20536;-46
2022/06/23 06:30:41;;;;;;;9.00;8.30;;;;;;;18.12;83.70;101622.16;4997966;28;20822;-47
2022/06/23 06:33:27;;;;;;;9.20;8.50;;;;;;;18.30;83.37;101624.84;5003541;28;20922;-47
2022/06/23 06:35:56;;;;;;;9.77;8.87;;;;;;;18.50;83.03;101614.66;5010201;28;20452;-50
2022/06/23 06:38:28;;;;;;;10.40;9.43;;;;;;;18.58;78.53;101600.00;5007799;28;20441;-47
2022/06/23 06:40:59;;;;;;;11.40;10.50;;;;;;;18.89;79.30;101605.16;5004879;28;20439;-47
2022/06/23 06:43:32;;;;;;;10.70;9.90;;;;;;;19.25;77.81;101605.03;5002263;28;20436;-46
2022/06/23 06:46:00;;;;;;;9.57;8.87;;;;;;;19.57;75.51;101605.56;4999362;28;20477;-47
2022/06/23 06:48:31;;;;;;;10.80;9.80;;;;;;;20.05;73.71;101610.69;5008058;28;20437;-47
2022/06/23 06:51:03;;;;;;;9.67;8.90;;;;;;;20.55;74.53;101602.81;5007982;28;20910;-47
2022/06/23 06:53:34;;;;;;;11.40;10.20;;;;;;;20.81;69.39;101594.13;5008513;28;20504;-46
2022/06/23 06:56:09;;;;;;;9.50;8.80;;;;;;;20.59;70.22;101589.63;5002917;28;21025;-47
2022/06/23 06:58:44;;;;;;;9.50;8.80;;;;;;;21.25;71.53;101581.63;4996577;28;20421;-49
2022/06/23 07:01:17;;;;;;;9.00;8.30;;;;;;;21.88;69.25;101589.38;4997009;28;20437;-52
2022/06/23 07:03:47;;;;;;;8.10;7.50;;;;;;;22.46;68.21;101587.94;5006261;28;20756;-46
2022/06/23 07:06:22;;;;;;;8.90;8.30;;;;;;;23.31;66.01;101577.06;5001436;28;20463;-47
2022/06/23 07:08:55;;;;;;;10.37;9.60;;;;;;;23.55;56.70;101583.81;4997266;28;20952;-47
2022/06/23 07:11:34;;;;;;;8.73;8.23;;;;;;;24.73;57.67;101582.16;5001847;28;20439;-47
2022/06/23 07:14:06;;;;;;;10.40;9.10;;;;;;;25.13;58.11;101584.16;4996483;28;20521;-45
2022/06/23 07:16:39;;;;;;;9.97;9.37;;;;;;;25.46;57.91;101573.75;5005346;28;20457;-47
2022/06/23 07:19:14;;;;;;;9.50;9.00;;;;;;;26.23;54.83;101571.38;5015169;28;20962;-49
2022/06/23 07:21:48;;;;;;;9.70;9.00;;;;;;;27.23;54.20;101573.75;5003760;28;20437;-49
2022/06/23 07:24:22;;;;;;;7.57;7.07;;;;;;;27.82;51.12;101578.94;5000363;28;20431;-45
2022/06/23 07:26:58;;;;;;;8.83;8.30;;;;;;;27.46;47.64;101581.22;5009150;28;21006;-48
2022/06/23 07:29:40;;;;;;;8.73;8.20;;;;;;;27.86;47.03;101588.22;5005541;28;20516;-47
2022/06/23 07:32:17;;;;;;;9.57;8.60;;;;;;;27.08;44.96;101582.09;5003949;28;20476;-45
2022/06/23 07:34:50;;;;;;;8.50;8.00;;;;;;;26.89;50.30;101590.16;5003901;28;20425;-48
2022/06/23 07:37:25;;;;;;;8.10;7.30;;;;;;;27.23;49.05;101585.53;5001795;28;20471;-45
2022/06/23 07:39:59;;;;;;;7.43;7.13;;;;;;;26.82;45.40;101589.69;4997165;28;20787;-47
2022/06/23 07:42:40;;;;;;;8.00;7.60;;;;;;;27.15;48.57;101588.06;4996564;28;20434;-46
2022/06/23 07:45:14;;;;;;;9.10;8.40;;;;;;;27.48;48.24;101589.19;5000351;28;20479;-45
2022/06/23 07:47:41;;;;;;;7.10;6.70;;;;;;;27.07;48.35;101580.44;4998555;28;20587;-44
2022/06/23 07:50:10;;;;;;;7.97;7.47;;;;;;;27.33;50.03;101582.69;5002058;28;20433;-43
2022/06/23 07:52:38;;;;;;;9.33;8.87;;;;;;;27.99;47.50;101590.25;4998120;28;20480;-47
2022/06/23 07:55:07;;;;;;;9.57;8.90;;;;;;;27.78;43.45;101578.69;4998841;28;20443;-45
2022/06/23 07:57:56;;;;;;;9.30;8.70;;;;;;;27.89;48.45;101590.38;5001788;28;20965;-45
2022/06/23 08:00:26;;;;;;;9.33;8.53;;;;;;;27.65;48.46;101590.38;5004473;28;20464;-46
2022/06/23 08:03:00;;;;;;;8.70;8.20;;;;;;;27.33;46.89;101595.56;5009114;28;20473;-45
2022/06/23 08:05:39;;;;;;;10.20;9.27;;;;;;;25.99;48.56;101591.41;5006366;28;21231;-46
2022/06/23 08:08:12;;;;;;;10.77;9.97;;;;;;;24.84;50.74;101593.94;5002240;28;20818;-47
2022/06/23 08:10:41;;;;;;;10.00;9.40;;;;;;;24.43;52.80;101603.09;5006754;28;20437;-44
2022/06/23 08:13:14;;;;;;;9.77;8.97;;;;;;;24.38;53.92;101592.97;5000647;28;21000;-45
2022/06/23 08:18:40;;;;;;;9.00;8.50;;;;;;;25.08;52.32;101597.81;4998764;28;20445;-46
2022/06/23 08:21:12;;;;;;;9.30;8.70;;;;;;;24.94;52.57;101612.25;5000281;28;20756;-50
2022/06/23 08:23:45;;;;;;;10.07;9.57;;;;;;;24.33;54.24;101609.31;5004527;28;20528;-48
2022/06/23 08:26:15;;;;;;;10.37;9.67;;;;;;;24.23;53.81;101612.00;5008692;28;20547;-44
2022/06/23 08:28:48;;;;;;;9.50;8.90;;;;;;;23.95;53.59;101613.22;5008257;28;20863;-48
2022/06/23 08:31:16;;;;;;;10.00;9.50;;;;;;;23.66;56.34;101609.19;5031331;23;20486;-43
2022/06/23 08:33:43;;;;;;;10.20;9.60;;;;;;;23.23;59.76;101610.22;5048083;28;20582;-44
2022/06/23 08:36:14;;;;;;;9.70;9.20;;;;;;;22.64;63.35;101603.09;5049909;28;20434;-44
2022/06/23 08:38:45;;;;;;;9.50;9.00;;;;;;;23.34;61.30;101601.06;5050109;28;20423;-43
2022/06/23 08:41:27;;;;;;;10.13;9.43;;;;;;;23.14;59.41;101592.72;5024731;28;20444;-44
2022/06/23 08:44:27;;;;;;;10.07;9.37;;;;;;;22.90;60.91;101592.25;5048219;28;20983;-46
2022/06/23 08:46:59;;;;;;;10.73;10.03;;;;;;;23.09;61.52;101589.94;5045692;28;20490;-45
2022/06/23 08:49:34;;;;;;;10.37;9.63;;;;;;;23.12;60.49;101592.97;5043112;28;20423;-43
2022/06/23 08:52:09;;;;;;;10.43;9.83;;;;;;;22.99;61.02;101587.97;5037118;28;20482;-43
2022/06/23 08:54:41;;;;;;;9.50;9.00;;;;;;;22.79;63.37;101595.91;5030685;28;20461;-45
2022/06/23 08:57:15;;;;;;;9.00;8.50;;;;;;;22.98;61.22;101585.50;5033149;28;20455;-45
2022/06/23 08:59:57;;;;;;;10.40;9.83;;;;;;;22.64;62.20;101586.78;5039499;28;20457;-44
2022/06/23 09:02:30;;;;;;;11.33;10.63;;;;;;;22.45;64.75;101583.56;5041631;28;20455;-43
2022/06/23 09:05:25;;;;;;;9.73;9.23;;;;;;;22.58;65.08;101592.13;5042914;28;20431;-44
2022/06/23 09:07:59;;;;;;;11.43;10.23;;;;;;;22.93;62.69;101589.00;5034233;28;20455;-43
2022/06/23 09:10:42;;;;;;;11.20;10.40;;;;;;;23.02;62.06;101587.47;5039248;28;20429;-45
2022/06/23 09:13:21;;;;;;;11.60;10.80;;;;;;;23.00;62.03;101569.72;5042854;28;20823;-46
2022/06/23 09:16:18;;;;;;;10.30;9.60;;;;;;;22.76;63.31;101582.84;5042298;28;20438;-45
2022/06/23 09:19:07;;;;;;;10.90;9.93;;;;;;;22.52;64.85;101579.56;5041761;28;20465;-43
2022/06/23 09:21:49;;;;;;;10.77;10.07;;;;;;;22.56;63.87;101582.59;5033459;28;20963;-49
2022/06/23 09:24:50;;;;;;;10.27;9.60;;;;;;;22.56;64.02;101579.88;5041666;28;20832;-44
2022/06/23 09:27:34;;;;;;;10.30;9.60;;;;;;;22.59;64.39;101568.50;5035817;28;20461;-43
2022/06/23 09:30:06;;;;;;;9.57;8.87;;;;;;;22.75;63.85;101564.91;5050983;28;20434;-44
2022/06/23 09:32:58;;;;;;;10.23;9.40;;;;;;;22.77;63.41;101562.72;5039640;28;20459;-43
2022/06/23 09:35:48;;;;;;;10.73;10.03;;;;;;;22.77;64.26;101560.00;5039456;28;20438;-43
2022/06/23 09:38:35;;;;;;;10.43;9.50;;;;;;;22.61;63.93;101566.34;5046724;28;20462;-46
2022/06/23 09:41:15;;;;;;;11.40;10.43;;;;;;;22.75;63.66;101570.34;5044128;28;20450;-43
2022/06/23 09:44:14;;;;;;;11.30;10.60;;;;;;;22.75;63.16;101555.91;5049934;28;20429;-46
2022/06/23 09:47:24;;;;;;;12.00;11.20;;;;;;;22.60;65.80;101565.53;5032537;28;20832;-43
2022/06/23 09:50:07;;;;;;;12.10;11.40;;;;;;;22.39;65.92;101573.72;5033808;28;20431;-44
2022/06/23 09:52:59;;;;;;;12.70;11.70;;;;;;;22.46;66.31;101572.44;5045518;28;20981;-46
2022/06/23 09:55:51;;;;;;;11.77;10.87;;;;;;;22.75;64.59;101556.75;5047032;28;20423;-46
2022/06/23 09:58:47;;;;;;;12.50;11.67;;;;;;;23.00;64.09;101567.84;5026342;28;20463;-49
2022/06/23 10:01:29;;;;;;;12.10;11.20;;;;;;;22.93;63.03;101561.81;5032774;28;20542;-43
2022/06/23 10:04:22;;;;;;;12.27;11.37;;;;;;;22.76;64.59;101549.41;5041653;28;20420;-44
2022/06/23 10:07:04;;;;;;;12.97;11.87;;;;;;;22.81;65.50;101554.88;5030765;28;20463;-46
2022/06/23 10:09:48;;;;;;;13.80;12.70;;;;;;;22.77;63.95;101560.00;5034316;28;20432;-48
2022/06/23 10:12:48;;;;;;;13.77;12.53;;;;;;;22.77;64.45;101551.03;5031475;28;20959;-47
2022/06/23 10:15:31;;;;;;;12.50;11.43;;;;;;;22.87;64.64;101551.13;5012143;28;20479;-48
2022/06/23 10:18:25;;;;;;;11.77;11.07;;;;;;;22.74;65.73;101544.22;5048360;28;20466;-44
2022/06/23 10:21:08;;;;;;;12.37;11.17;;;;;;;22.73;64.63;101548.00;5039652;28;20426;-48
2022/06/23 10:23:58;;;;;;;11.70;10.80;;;;;;;22.93;64.97;101550.09;5045658;28;20423;-45
2022/06/23 10:26:38;;;;;;;11.00;10.30;;;;;;;22.96;63.53;101555.03;5044914;28;20986;-46
2022/06/23 10:29:36;;;;;;;11.30;10.60;;;;;;;22.94;64.24;101549.00;5044252;28;20911;-47
2022/06/23 10:32:35;;;;;;;11.53;10.83;;;;;;;22.56;65.35;101553.53;5023738;28;20564;-45
2022/06/23 10:35:14;;;;;;;11.10;10.10;;;;;;;23.26;63.93;101551.72;5031726;28;20482;-48
2022/06/23 10:38:01;;;;;;;9.77;9.23;;;;;;;23.77;60.68;101550.19;5044742;28;20459;-44
2022/06/23 10:41:04;;;;;;;9.87;9.27;;;;;;;23.86;61.30;101548.59;5045705;28;20445;-42
2022/06/23 10:43:58;;;;;;;11.03;10.00;;;;;;;23.68;60.32;101553.38;5016745;28;20971;-44
2022/06/23 10:46:33;;;;;;;10.17;9.57;;;;;;;24.20;59.32;101547.94;5036216;28;20470;-47
2022/06/23 10:49:28;;;;;;;8.70;8.00;;;;;;;24.71;59.51;101531.69;5040252;28;20469;-44
2022/06/23 10:52:31;;;;;;;9.30;8.60;;;;;;;24.83;58.61;101524.09;5035281;28;20462;-44
2022/06/23 10:55:26;;;;;;;8.30;7.90;;;;;;;25.17;56.22;101518.91;5047582;28;20463;-45
2022/06/23 10:58:20;;;;;;;9.50;8.70;;;;;;;24.89;56.61;101517.56;5035660;28;20827;-47
2022/06/23 11:00:58;;;;;;;8.90;8.20;;;;;;;24.97;58.85;101524.41;5031876;28;20439;-47
2022/06/23 11:03:47;;;;;;;9.40;8.80;;;;;;;24.99;57.58;101522.19;5037047;28;20510;-44
2022/06/23 11:06:56;;;;;;;8.93;8.33;;;;;;;25.06;57.55;101520.81;5046567;28;20426;-45
2022/06/23 11:09:40;;;;;;;8.87;8.37;;;;;;;24.94;59.74;101520.28;5041189;28;20569;-44
2022/06/23 11:12:23;;;;;;;10.10;9.40;;;;;;;25.23;58.26;101498.72;5031910;28;20465;-46
2022/06/23 11:15:03;;;;;;;8.50;7.90;;;;;;;25.67;55.89;101499.72;5035589;28;21023;-43
2022/06/23 11:17:46;;;;;;;9.53;8.93;;;;;;;25.78;55.07;101500.47;5031625;28;20835;-45
2022/06/23 11:20:25;;;;;;;8.87;8.27;;;;;;;25.94;55.86;101506.69;5038824;28;20453;-45
2022/06/23 11:23:01;;;;;;;8.87;8.30;;;;;;;26.01;54.89;101496.28;5045688;28;20466;-46
2022/06/23 11:25:40;;;;;;;8.70;8.30;;;;;;;26.02;55.33;101495.19;5042820;28;20426;-44
2022/06/23 11:28:20;;;;;;;8.03;7.53;;;;;;;25.91;54.04;101493.59;5031227;28;20452;-49
2022/06/23 11:31:01;;;;;;;9.40;8.47;;;;;;;26.19;54.06;101491.03;5032169;28;20423;-49
2022/06/23 11:33:43;;;;;;;10.00;9.40;;;;;;;25.95;54.34;101494.69;5026994;28;20423;-45
2022/06/23 11:36:20;;;;;;;8.40;7.90;;;;;;;26.13;54.16;101497.59;5031377;28;20469;-44
2022/06/23 11:39:16;;;;;;;9.10;8.47;;;;;;;25.84;54.11;101499.38;5037299;28;20434;-47
2022/06/23 11:42:09;;;;;;;8.10;7.70;;;;;;;26.04;54.47;101485.63;5041301;28;20767;-45
2022/06/23 11:44:58;;;;;;;8.30;7.60;;;;;;;26.24;54.22;101487.44;5033827;28;20437;-45
2022/06/23 11:47:37;;;;;;;8.00;7.40;;;;;;;26.33;54.55;101480.28;5030619;28;20987;-44
2022/06/23 11:50:13;;;;;;;7.07;6.60;;;;;;;26.59;54.77;101475.44;5034111;28;20428;-48
2022/06/23 11:52:57;;;;;;;6.20;5.80;;;;;;;26.88;51.89;101479.88;5032892;28;20450;-44
2022/06/23 11:55:32;;;;;;;7.50;7.00;;;;;;;26.71;52.08;101473.16;5035068;28;20470;-47
2022/06/23 11:58:15;;;;;;;6.70;6.40;;;;;;;26.77;51.89;101478.31;5035134;28;20459;-43
2022/06/23 12:01:02;;;;;;;6.30;6.10;;;;;;;26.66;51.26;101471.28;5038658;28;20769;-45
2022/06/23 12:03:43;;;;;;;6.53;6.03;;;;;;;26.83;51.08;101488.13;5037313;28;20427;-46
2022/06/23 12:06:20;;;;;;;5.60;5.30;;;;;;;26.97;50.94;101473.78;5044297;28;20876;-45
2022/06/23 12:08:59;;;;;;;6.47;6.17;;;;;;;27.14;51.83;101463.22;5045934;28;20935;-43
2022/06/23 12:11:30;;;;;;;6.97;6.50;;;;;;;27.29;52.14;101471.28;5041696;28;20461;-43
2022/06/23 12:14:02;;;;;;;7.30;6.80;;;;;;;27.46;50.76;101469.72;5039549;28;20435;-46
2022/06/23 12:16:31;;;;;;;7.90;7.10;;;;;;;27.23;49.66;101473.25;5046624;28;20983;-43